createdAt,value
2022-08-27T00:00:48.637Z,24.21
2022-08-27T00:03:16.002Z,24.15
2022-08-27T00:05:46.070Z,24.15
2022-08-27T00:08:14.133Z,24.12
2022-08-27T00:10:42.142Z,24.10
2022-08-27T00:13:09.626Z,24.04
2022-08-27T00:15:36.874Z,24.01
2022-08-27T00:18:04.672Z,23.94
2022-08-27T00:20:31.647Z,23.89
2022-08-27T00:22:58.487Z,23.82
2022-08-27T00:25:25.694Z,23.79
2022-08-27T00:27:52.857Z,23.73
2022-08-27T00:30:23.512Z,23.75
2022-08-27T00:32:50.537Z,23.74
2022-08-27T00:35:18.861Z,23.69
2022-08-27T00:37:45.877Z,23.66
2022-08-27T00:40:17.537Z,23.57
2022-08-27T00:42:46.159Z,23.48
2022-08-27T00:45:16.027Z,23.49
2022-08-27T00:47:51.059Z,23.45
2022-08-27T00:50:37.208Z,23.44
2022-08-27T00:53:08.310Z,23.42
2022-08-27T00:55:46.374Z,23.43
2022-08-27T00:58:30.778Z,23.35
2022-08-27T01:00:59.539Z,23.28
2022-08-27T01:03:27.490Z,23.26
2022-08-27T01:05:57.029Z,23.24
2022-08-27T01:08:28.358Z,23.12
2022-08-27T01:10:58.657Z,23.19
2022-08-27T01:13:44.166Z,23.21
2022-08-27T01:16:22.384Z,23.20
2022-08-27T01:18:50.840Z,23.16
2022-08-27T01:21:31.802Z,23.14
2022-08-27T01:24:23.242Z,23.11
2022-08-27T01:26:50.311Z,23.12
2022-08-27T01:29:18.192Z,23.10
2022-08-27T01:31:45.201Z,23.12
2022-08-27T01:34:15.191Z,23.11
2022-08-27T01:36:41.981Z,23.06
2022-08-27T01:39:08.911Z,23.01
2022-08-27T01:41:35.942Z,22.97
2022-08-27T01:44:04.706Z,22.87
2022-08-27T01:46:31.689Z,22.88
2022-08-27T01:48:58.699Z,22.88
2022-08-27T01:51:25.627Z,22.86
2022-08-27T01:53:52.413Z,22.83
2022-08-27T01:56:19.957Z,22.82
2022-08-27T01:58:47.460Z,22.78
2022-08-27T02:01:19.686Z,22.77
2022-08-27T02:03:48.516Z,22.74
2022-08-27T02:06:15.601Z,22.71
2022-08-27T02:08:42.422Z,22.67
2022-08-27T02:11:10.285Z,22.65
2022-08-27T02:13:37.379Z,22.65
2022-08-27T02:16:05.414Z,22.60
2022-08-27T02:18:32.445Z,22.58
2022-08-27T02:20:59.594Z,22.55
2022-08-27T02:23:26.615Z,22.53
2022-08-27T02:25:54.073Z,22.51
2022-08-27T02:28:21.003Z,22.51
2022-08-27T02:30:47.852Z,22.50
2022-08-27T02:33:14.777Z,22.50
2022-08-27T02:35:44.010Z,22.50
2022-08-27T02:38:13.449Z,22.48
2022-08-27T02:40:40.453Z,22.47
2022-08-27T02:43:07.716Z,22.47
2022-08-27T02:45:35.601Z,22.49
2022-08-27T02:48:02.761Z,22.49
2022-08-27T02:50:30.444Z,22.56
2022-08-27T02:52:58.014Z,22.58
2022-08-27T02:55:24.905Z,22.51
2022-08-27T02:57:51.963Z,22.41
2022-08-27T03:00:21.101Z,22.38
2022-08-27T03:02:48.440Z,22.39
2022-08-27T03:05:16.868Z,22.42
2022-08-27T03:07:43.798Z,22.42
2022-08-27T03:10:14.015Z,22.39
2022-08-27T03:12:41.663Z,22.38
2022-08-27T03:15:11.325Z,22.40
2022-08-27T03:17:56.420Z,22.30
2022-08-27T03:20:25.211Z,22.25
2022-08-27T03:22:52.351Z,22.35
2022-08-27T03:25:19.931Z,22.37
2022-08-27T03:27:47.152Z,22.41
2022-08-27T03:30:18.045Z,22.46
2022-08-27T03:32:45.257Z,22.46
2022-08-27T03:35:13.250Z,22.53
2022-08-27T03:37:40.624Z,22.54
2022-08-27T03:40:09.782Z,22.60
2022-08-27T03:42:37.573Z,22.65
2022-08-27T03:45:08.672Z,22.67
2022-08-27T03:47:37.079Z,22.75
2022-08-27T03:50:04.884Z,22.77
2022-08-27T03:52:33.934Z,22.90
2022-08-27T03:55:01.795Z,22.89
2022-08-27T03:57:28.912Z,22.98
2022-08-27T03:59:58.417Z,23.06
2022-08-27T04:02:26.389Z,23.12
2022-08-27T04:04:53.393Z,23.20
2022-08-27T04:07:22.353Z,23.27
2022-08-27T04:09:49.485Z,23.36
2022-08-27T04:12:16.290Z,23.47
2022-08-27T04:14:45.726Z,23.63
2022-08-27T04:17:12.650Z,23.71
2022-08-27T04:19:39.559Z,23.77
2022-08-27T04:22:08.126Z,23.79
2022-08-27T04:24:36.901Z,23.89
2022-08-27T04:27:05.067Z,24.01
2022-08-27T04:29:32.656Z,24.09
2022-08-27T04:31:59.557Z,24.17
2022-08-27T04:34:26.974Z,24.26
2022-08-27T04:36:57.772Z,24.33
2022-08-27T04:39:27.009Z,24.37
2022-08-27T04:41:59.525Z,24.43
2022-08-27T04:44:32.555Z,24.50
2022-08-27T04:47:03.883Z,24.61
2022-08-27T04:49:31.584Z,24.69
2022-08-27T04:52:00.939Z,24.82
2022-08-27T04:54:32.849Z,24.89
2022-08-27T04:57:04.135Z,24.89
2022-08-27T04:59:32.527Z,24.93
2022-08-27T05:01:59.980Z,25.02
2022-08-27T05:04:30.710Z,25.14
2022-08-27T05:06:58.137Z,25.27
2022-08-27T05:09:26.991Z,25.38
2022-08-27T05:11:55.656Z,25.47
2022-08-27T05:14:25.471Z,25.55
2022-08-27T05:16:52.273Z,25.66
2022-08-27T05:19:19.148Z,25.75
2022-08-27T05:21:49.349Z,25.84
2022-08-27T05:24:17.582Z,25.90
2022-08-27T05:26:44.907Z,26.01
2022-08-27T05:29:12.477Z,26.12
2022-08-27T05:31:39.963Z,26.24
2022-08-27T05:34:10.652Z,26.40
2022-08-27T05:36:48.964Z,26.55
2022-08-27T05:39:16.978Z,26.80
2022-08-27T05:41:43.911Z,27.16
2022-08-27T05:44:39.126Z,27.50
2022-08-27T05:46:58.273Z,27.71
2022-08-27T05:49:25.298Z,28.38
2022-08-27T05:51:52.141Z,29.67
2022-08-27T05:54:19.963Z,31.48
2022-08-27T05:56:47.842Z,33.54
2022-08-27T05:59:34.515Z,33.47
2022-08-27T06:02:02.593Z,32.92
2022-08-27T06:04:30.576Z,32.33
2022-08-27T06:06:57.799Z,31.85
2022-08-27T06:09:29.056Z,31.62
2022-08-27T06:11:58.867Z,31.69
2022-08-27T06:14:26.611Z,32.17
2022-08-27T06:16:53.686Z,34.13
2022-08-27T06:19:20.859Z,35.12
2022-08-27T06:22:00.708Z,34.32
2022-08-27T06:24:36.304Z,33.25
2022-08-27T06:27:03.281Z,32.54
2022-08-27T06:29:30.049Z,32.09
2022-08-27T06:31:56.920Z,31.67
2022-08-27T06:34:23.860Z,31.38
2022-08-27T06:36:50.785Z,31.56
2022-08-27T06:39:17.778Z,32.13
2022-08-27T06:41:45.351Z,32.93
2022-08-27T06:44:15.843Z,33.40
2022-08-27T06:46:43.849Z,33.80
2022-08-27T06:49:12.357Z,33.95
2022-08-27T06:51:40.142Z,33.25
2022-08-27T06:54:09.688Z,32.72
2022-08-27T06:56:36.556Z,32.23
2022-08-27T06:59:11.462Z,31.69
2022-08-27T07:01:41.950Z,31.43
2022-08-27T07:04:12.351Z,31.31
2022-08-27T07:06:41.070Z,31.58
2022-08-27T07:09:09.731Z,32.01
2022-08-27T07:11:36.704Z,32.12
2022-08-27T07:14:04.083Z,32.17
2022-08-27T07:16:31.102Z,32.00
2022-08-27T07:19:03.893Z,32.06
2022-08-27T07:21:32.578Z,32.79
2022-08-27T07:24:04.962Z,33.28
2022-08-27T07:26:35.076Z,33.53
2022-08-27T07:29:03.292Z,33.31
2022-08-27T07:31:30.462Z,33.03
2022-08-27T07:33:58.130Z,33.65
2022-08-27T07:36:25.227Z,33.72
2022-08-27T07:38:59.221Z,34.07
2022-08-27T07:41:32.883Z,35.13
2022-08-27T07:44:19.096Z,36.30
2022-08-27T07:46:48.278Z,36.84
2022-08-27T07:49:17.488Z,37.83
2022-08-27T07:51:44.956Z,37.88
2022-08-27T07:54:12.095Z,38.59
2022-08-27T07:56:39.001Z,38.84
2022-08-27T07:59:05.887Z,39.10
2022-08-27T08:01:32.945Z,40.23
2022-08-27T08:04:00.038Z,39.86
2022-08-27T08:06:27.341Z,39.08
2022-08-27T08:08:58.755Z,40.43
2022-08-27T08:11:26.355Z,42.97
2022-08-27T08:13:53.200Z,44.71
2022-08-27T08:16:21.091Z,46.11
2022-08-27T08:18:48.174Z,47.08
2022-08-27T08:21:15.231Z,48.62
2022-08-27T08:23:43.255Z,49.40
2022-08-27T08:26:12.579Z,50.31
2022-08-27T08:28:40.686Z,51.48
2022-08-27T08:31:08.334Z,52.44
2022-08-27T08:33:36.093Z,53.09
2022-08-27T08:36:15.619Z,53.82
2022-08-27T08:38:44.322Z,53.81
2022-08-27T08:41:36.527Z,53.65
2022-08-27T08:44:26.462Z,53.06
2022-08-27T08:47:08.234Z,53.69
2022-08-27T08:49:44.048Z,54.11
2022-08-27T08:52:30.410Z,54.83
2022-08-27T08:55:09.333Z,55.38
2022-08-27T08:57:49.073Z,55.67
2022-08-27T09:00:16.653Z,55.87
2022-08-27T09:02:51.025Z,55.51
2022-08-27T09:05:18.068Z,55.54
2022-08-27T09:08:09.924Z,56.24
2022-08-27T09:10:52.573Z,55.95
2022-08-27T09:13:27.899Z,55.85
2022-08-27T09:15:58.611Z,55.72
2022-08-27T09:18:28.141Z,55.36
2022-08-27T09:21:10.174Z,55.23
2022-08-27T09:24:00.273Z,55.00
2022-08-27T09:26:37.201Z,54.20
2022-08-27T09:29:16.646Z,53.63
2022-08-27T09:31:52.995Z,53.56
2022-08-27T09:34:20.188Z,53.51
2022-08-27T09:36:54.820Z,53.67
2022-08-27T09:39:32.285Z,52.92
2022-08-27T09:41:59.852Z,49.22
2022-08-27T09:44:27.010Z,46.01
2022-08-27T09:46:58.150Z,43.79
2022-08-27T09:49:26.672Z,42.09
2022-08-27T09:51:57.287Z,40.87
2022-08-27T09:54:32.293Z,39.50
2022-08-27T09:57:01.778Z,38.57
2022-08-27T09:59:36.134Z,37.81
2022-08-27T10:02:17.579Z,37.30
2022-08-27T10:04:51.381Z,36.77
2022-08-27T10:07:32.053Z,36.26
2022-08-27T10:10:03.683Z,36.00
2022-08-27T10:12:42.273Z,35.84
2022-08-27T10:15:10.242Z,35.54
2022-08-27T10:18:09.005Z,35.36
2022-08-27T10:20:48.510Z,35.11
2022-08-27T10:23:28.127Z,35.08
2022-08-27T10:26:15.419Z,34.97
2022-08-27T10:28:45.086Z,34.80
2022-08-27T10:31:28.182Z,34.69
2022-08-27T10:34:12.345Z,34.54
2022-08-27T10:37:07.709Z,34.58
2022-08-27T10:39:46.639Z,34.66
2022-08-27T10:42:34.622Z,34.65
2022-08-27T10:45:30.509Z,34.48
2022-08-27T10:48:07.352Z,34.61
2022-08-27T10:50:59.212Z,34.58
2022-08-27T10:53:49.161Z,34.64
2022-08-27T10:56:40.023Z,34.57
2022-08-27T10:59:31.229Z,34.38
2022-08-27T11:02:17.088Z,34.19
2022-08-27T11:04:51.490Z,33.88
2022-08-27T11:07:25.986Z,33.57
2022-08-27T11:10:02.431Z,33.47
2022-08-27T11:12:42.419Z,33.41
2022-08-27T11:15:25.542Z,33.24
2022-08-27T11:18:00.237Z,32.98
2022-08-27T11:21:07.974Z,32.89
2022-08-27T11:24:17.713Z,32.84
2022-08-27T11:26:46.153Z,32.94
2022-08-27T11:29:31.683Z,33.15
2022-08-27T11:32:27.739Z,33.39
2022-08-27T11:35:20.626Z,33.66
2022-08-27T11:38:27.661Z,33.66
2022-08-27T11:41:26.167Z,33.63
2022-08-27T11:43:54.790Z,33.66
2022-08-27T11:46:25.609Z,33.61
2022-08-27T11:48:59.916Z,33.70
2022-08-27T11:51:38.940Z,33.70
2022-08-27T11:54:31.449Z,33.45
2022-08-27T11:56:58.743Z,33.33
2022-08-27T11:59:28.280Z,33.25
2022-08-27T12:02:20.718Z,33.24
2022-08-27T12:04:49.560Z,33.11
2022-08-27T12:07:19.211Z,33.14
2022-08-27T12:09:51.889Z,33.16
2022-08-27T12:12:53.103Z,33.08
2022-08-27T12:15:52.370Z,33.02
2022-08-27T12:18:37.352Z,33.06
2022-08-27T12:21:16.948Z,32.94
2022-08-27T12:24:33.335Z,32.89
2022-08-27T12:27:13.656Z,32.74
2022-08-27T12:29:54.074Z,32.68
2022-08-27T12:32:40.167Z,32.71
2022-08-27T12:35:23.801Z,32.79
2022-08-27T12:38:02.684Z,32.73
2022-08-27T12:40:39.944Z,32.53
2022-08-27T12:43:10.739Z,32.48
2022-08-27T12:45:48.676Z,32.43
2022-08-27T12:48:20.973Z,32.30
2022-08-27T12:50:53.257Z,32.23
2022-08-27T12:53:35.263Z,32.14
2022-08-27T12:56:26.407Z,32.11
2022-08-27T12:59:19.464Z,32.15
2022-08-27T13:02:13.821Z,32.21
2022-08-27T13:04:42.630Z,32.25
2022-08-27T13:07:09.910Z,32.25
2022-08-27T13:09:39.074Z,32.26
2022-08-27T13:12:17.654Z,32.21
2022-08-27T13:14:45.909Z,32.07
2022-08-27T13:17:24.073Z,32.03
2022-08-27T13:19:59.507Z,31.94
2022-08-27T13:22:41.048Z,31.91
2022-08-27T13:25:25.984Z,31.88
2022-08-27T13:28:08.233Z,31.89
2022-08-27T13:30:42.256Z,31.85
2022-08-27T13:33:14.324Z,31.76
2022-08-27T13:35:43.776Z,31.65
2022-08-27T13:38:11.090Z,31.60
2022-08-27T13:40:56.784Z,31.55
2022-08-27T13:43:35.510Z,31.48
2022-08-27T13:46:09.049Z,31.44
2022-08-27T13:48:40.255Z,31.39
2022-08-27T13:51:09.393Z,31.35
2022-08-27T13:53:55.496Z,31.32
2022-08-27T13:56:31.785Z,31.31
2022-08-27T13:59:12.412Z,31.31
2022-08-27T14:01:43.780Z,31.31
2022-08-27T14:04:22.935Z,31.29
2022-08-27T14:06:52.726Z,31.24
2022-08-27T14:09:24.275Z,31.21
2022-08-27T14:12:02.510Z,31.18
2022-08-27T14:14:31.537Z,31.21
2022-08-27T14:16:59.665Z,31.05
2022-08-27T14:19:33.450Z,31.12
2022-08-27T14:22:03.626Z,31.13
2022-08-27T14:24:30.687Z,31.06
2022-08-27T14:27:06.541Z,31.09
2022-08-27T14:29:33.359Z,30.99
2022-08-27T14:32:00.327Z,30.95
2022-08-27T14:34:27.471Z,30.94
2022-08-27T14:36:55.054Z,30.91
2022-08-27T14:39:26.691Z,30.89
2022-08-27T14:41:54.656Z,30.88
2022-08-27T14:44:22.168Z,30.82
2022-08-27T14:46:49.510Z,30.75
2022-08-27T14:49:31.047Z,30.75
2022-08-27T14:51:58.259Z,30.67
2022-08-27T14:54:29.109Z,30.64
2022-08-27T14:57:02.449Z,30.56
2022-08-27T14:59:29.715Z,30.50
2022-08-27T15:01:58.561Z,30.49
2022-08-27T15:04:26.855Z,30.42
2022-08-27T15:06:55.054Z,30.40
2022-08-27T15:09:23.376Z,30.34
2022-08-27T15:11:54.522Z,30.33
2022-08-27T15:14:25.916Z,30.33
2022-08-27T15:16:54.510Z,30.28
2022-08-27T15:19:23.427Z,30.23
2022-08-27T15:21:51.839Z,30.18
2022-08-27T15:24:25.735Z,30.15
2022-08-27T15:26:57.545Z,30.13
2022-08-27T15:29:25.675Z,30.06
2022-08-27T15:31:53.051Z,30.05
2022-08-27T15:34:19.985Z,30.01
2022-08-27T15:36:46.933Z,30.01
2022-08-27T15:39:13.787Z,30.01
2022-08-27T15:42:05.324Z,30.01
2022-08-27T15:44:29.312Z,29.97
2022-08-27T15:46:56.245Z,29.96
2022-08-27T15:49:23.134Z,29.93
2022-08-27T15:51:49.970Z,29.90
2022-08-27T15:54:19.455Z,29.85
2022-08-27T15:56:46.389Z,29.80
2022-08-27T15:59:13.308Z,29.75
2022-08-27T16:01:40.463Z,29.72
2022-08-27T16:04:07.591Z,29.68
2022-08-27T16:06:35.800Z,29.61
2022-08-27T16:09:04.758Z,29.60
2022-08-27T16:11:34.128Z,29.57
2022-08-27T16:14:01.582Z,29.52
2022-08-27T16:16:31.913Z,29.48
2022-08-27T16:19:03.280Z,29.43
2022-08-27T16:21:30.856Z,29.40
2022-08-27T16:23:59.951Z,29.39
2022-08-27T16:26:27.018Z,29.36
2022-08-27T16:28:54.219Z,29.32
2022-08-27T16:31:23.434Z,29.28
2022-08-27T16:33:52.730Z,29.21
2022-08-27T16:36:19.776Z,29.05
2022-08-27T16:38:46.765Z,29.04
2022-08-27T16:41:14.274Z,29.02
2022-08-27T16:43:41.513Z,28.99
2022-08-27T16:46:08.481Z,28.97
2022-08-27T16:49:00.311Z,28.96
2022-08-27T16:51:34.616Z,28.87
2022-08-27T16:54:06.461Z,28.82
2022-08-27T16:56:37.019Z,28.74
2022-08-27T16:59:05.055Z,28.72
2022-08-27T17:01:33.428Z,28.69
2022-08-27T17:04:16.104Z,28.62
2022-08-27T17:06:51.797Z,28.56
2022-08-27T17:09:19.352Z,28.55
2022-08-27T17:11:55.296Z,28.46
2022-08-27T17:14:22.139Z,28.39
2022-08-27T17:16:50.367Z,28.39
2022-08-27T17:19:18.855Z,28.32
2022-08-27T17:21:46.015Z,28.29
2022-08-27T17:24:13.577Z,28.34
2022-08-27T17:26:40.859Z,28.36
2022-08-27T17:29:07.858Z,28.40
2022-08-27T17:31:40.686Z,28.42
2022-08-27T17:34:21.707Z,28.41
2022-08-27T17:36:48.742Z,28.35
2022-08-27T17:39:15.868Z,28.33
2022-08-27T17:41:53.209Z,28.30
2022-08-27T17:44:32.841Z,28.27
2022-08-27T17:47:05.070Z,28.22
2022-08-27T17:49:32.453Z,28.20
2022-08-27T17:52:02.381Z,28.19
2022-08-27T17:54:32.699Z,28.15
2022-08-27T17:57:01.548Z,28.09
2022-08-27T17:59:29.095Z,28.05
2022-08-27T18:01:57.496Z,28.03
2022-08-27T18:04:24.962Z,28.00
2022-08-27T18:06:51.768Z,27.98
2022-08-27T18:09:18.804Z,27.95
2022-08-27T18:11:46.666Z,27.92
2022-08-27T18:14:13.793Z,27.85
2022-08-27T18:16:46.081Z,27.81
2022-08-27T18:19:13.280Z,27.81
2022-08-27T18:21:46.189Z,27.81
2022-08-27T18:24:15.720Z,27.78
2022-08-27T18:26:44.264Z,27.74
2022-08-27T18:29:13.680Z,27.74
2022-08-27T18:31:40.673Z,27.71
2022-08-27T18:34:07.709Z,27.71
2022-08-27T18:36:34.598Z,27.67
2022-08-27T18:39:01.595Z,27.63
2022-08-27T18:41:30.643Z,27.66
2022-08-27T18:43:58.273Z,27.59
2022-08-27T18:46:25.274Z,27.57
2022-08-27T18:48:52.540Z,27.61
2022-08-27T18:51:19.990Z,27.59
2022-08-27T18:53:48.892Z,27.57
2022-08-27T18:56:19.122Z,27.56
2022-08-27T18:58:47.628Z,27.48
2022-08-27T19:01:19.622Z,27.44
2022-08-27T19:03:50.269Z,27.42
2022-08-27T19:06:20.561Z,27.39
2022-08-27T19:08:49.320Z,27.37
2022-08-27T19:11:16.188Z,27.32
2022-08-27T19:13:43.494Z,27.32
2022-08-27T19:16:24.864Z,27.30
2022-08-27T19:18:52.279Z,27.25
2022-08-27T19:21:20.145Z,27.21
2022-08-27T19:23:48.319Z,27.17
2022-08-27T19:26:19.026Z,27.15
2022-08-27T19:28:46.760Z,27.10
2022-08-27T19:31:14.642Z,27.07
2022-08-27T19:33:42.076Z,27.00
2022-08-27T19:36:15.485Z,26.97
2022-08-27T19:38:43.621Z,26.88
2022-08-27T19:41:10.880Z,26.86
2022-08-27T19:43:38.240Z,26.82
2022-08-27T19:46:05.653Z,26.70
2022-08-27T19:48:34.497Z,26.50
2022-08-27T19:51:01.419Z,26.54
2022-08-27T19:53:30.873Z,26.55
2022-08-27T19:55:57.609Z,26.40
2022-08-27T19:58:24.717Z,26.39
2022-08-27T20:00:51.636Z,26.38
2022-08-27T20:03:19.589Z,26.43
2022-08-27T20:05:48.985Z,26.51
2022-08-27T20:08:16.418Z,26.54
2022-08-27T20:10:46.346Z,26.53
2022-08-27T20:13:13.223Z,26.60
2022-08-27T20:15:40.593Z,26.62
2022-08-27T20:18:08.909Z,26.62
2022-08-27T20:20:36.159Z,26.56
2022-08-27T20:23:05.533Z,26.58
2022-08-27T20:25:33.278Z,26.44
2022-08-27T20:28:12.238Z,26.47
2022-08-27T20:30:49.962Z,26.47
2022-08-27T20:33:16.933Z,26.33
2022-08-27T20:35:44.750Z,26.39
2022-08-27T20:38:11.808Z,26.38
2022-08-27T20:40:39.041Z,26.27
2022-08-27T20:43:05.913Z,26.18
2022-08-27T20:45:32.977Z,26.09
2022-08-27T20:47:59.817Z,26.00
2022-08-27T20:50:27.090Z,25.96
2022-08-27T20:52:54.049Z,25.99
2022-08-27T20:55:22.953Z,26.04
2022-08-27T20:58:09.039Z,26.10
2022-08-27T21:00:40.751Z,26.16
2022-08-27T21:03:09.742Z,26.15
2022-08-27T21:05:36.831Z,26.22
2022-08-27T21:08:06.470Z,26.25
2022-08-27T21:10:34.402Z,26.23
2022-08-27T21:13:04.487Z,26.25
2022-08-27T21:15:32.203Z,26.27
2022-08-27T21:17:59.097Z,26.27
2022-08-27T21:20:26.384Z,26.28
2022-08-27T21:22:53.316Z,26.27
2022-08-27T21:25:20.298Z,26.25
2022-08-27T21:27:47.158Z,26.22
2022-08-27T21:30:14.250Z,26.21
2022-08-27T21:32:41.875Z,26.21
2022-08-27T21:35:09.479Z,26.18
2022-08-27T21:37:36.671Z,26.14
2022-08-27T21:40:05.924Z,26.11
2022-08-27T21:42:32.952Z,26.06
2022-08-27T21:44:59.923Z,26.01
2022-08-27T21:47:26.904Z,25.99
2022-08-27T21:49:55.968Z,25.97
2022-08-27T21:52:23.940Z,25.91
2022-08-27T21:54:50.702Z,25.88
2022-08-27T21:57:19.904Z,25.83
2022-08-27T21:59:48.813Z,25.82
2022-08-27T22:02:38.623Z,25.79
2022-08-27T22:05:06.323Z,25.74
2022-08-27T22:07:33.167Z,25.71
2022-08-27T22:10:00.067Z,25.71
2022-08-27T22:12:27.178Z,25.67
2022-08-27T22:14:54.027Z,25.65
2022-08-27T22:17:20.946Z,25.63
2022-08-27T22:19:47.977Z,25.62
2022-08-27T22:22:14.816Z,25.59
2022-08-27T22:24:41.739Z,25.58
2022-08-27T22:27:08.489Z,25.59
2022-08-27T22:29:35.474Z,25.56
2022-08-27T22:32:02.784Z,25.51
2022-08-27T22:34:29.630Z,25.53
2022-08-27T22:36:56.601Z,25.49
2022-08-27T22:39:25.972Z,25.50
2022-08-27T22:41:55.127Z,25.49
2022-08-27T22:44:23.745Z,25.45
2022-08-27T22:46:52.005Z,25.45
2022-08-27T22:49:18.878Z,25.43
2022-08-27T22:51:46.054Z,25.40
2022-08-27T22:54:13.267Z,25.38
2022-08-27T22:56:40.193Z,25.36
2022-08-27T22:59:07.431Z,25.34
2022-08-27T23:01:35.916Z,25.31
2022-08-27T23:04:04.003Z,25.30
2022-08-27T23:06:31.747Z,25.28
2022-08-27T23:08:58.784Z,25.25
2022-08-27T23:11:25.772Z,25.26
2022-08-27T23:13:53.543Z,25.25
2022-08-27T23:16:20.902Z,25.25
2022-08-27T23:18:47.800Z,25.25
2022-08-27T23:21:14.727Z,25.27
2022-08-27T23:23:41.546Z,25.28
2022-08-27T23:26:27.045Z,25.25
2022-08-27T23:28:53.882Z,25.24
2022-08-27T23:31:21.282Z,25.24
2022-08-27T23:33:52.427Z,25.22
2022-08-27T23:36:19.852Z,25.19
2022-08-27T23:38:47.498Z,25.12
2022-08-27T23:41:17.827Z,25.10
2022-08-27T23:43:45.600Z,25.06
2022-08-27T23:46:13.149Z,25.04
2022-08-27T23:48:40.044Z,25.02
2022-08-27T23:51:08.739Z,24.96
2022-08-27T23:53:37.487Z,24.89
2022-08-27T23:56:05.188Z,24.82
2022-08-27T23:58:32.932Z,24.79
